Time;durP1;ratioP1;P1;durP2;ratioP2;P2;SDS_P1;SDS_P2;PMS_P1;PMS_P2;Temp;Humidity;BMP_temperature;BMP_pressure;BME280_temperature;BME280_humidity;BME280_pressure;Samples;Min_cycle;Max_cycle;Signal;HPM_P1;HPM_P2
2022/09/04 00:02:40;;;;;;;6.97;5.27;;;21.60;3.10;;;;;;6106078;23;20150;-91
2022/09/04 00:05:15;;;;;;;5.57;5.03;;;21.70;1.80;;;;;;6129708;23;20237;-90
2022/09/04 00:07:57;;;;;;;6.77;4.80;;;21.60;1.00;;;;;;6106968;23;20231;-89
2022/09/04 00:10:28;;;;;;;7.13;5.03;;;21.60;1.50;;;;;;6106542;23;20158;-93
2022/09/04 00:13:29;;;;;;;7.20;4.77;;;21.60;2.60;;;;;;6107443;23;20186;-91
2022/09/04 00:16:23;;;;;;;6.97;5.00;;;21.40;6.80;;;;;;6058507;23;20162;-91
2022/09/04 00:19:12;;;;;;;6.93;4.87;;;21.40;8.30;;;;;;6127942;23;20177;-93
2022/09/04 00:21:59;;;;;;;7.73;4.83;;;21.50;6.20;;;;;;6105518;23;20490;-92
2022/09/04 00:24:36;;;;;;;5.50;4.50;;;21.60;4.80;;;;;;6106448;23;20153;-89
2022/09/04 00:27:28;;;;;;;5.53;4.40;;;21.60;1.00;;;;;;6105081;23;20156;-93
2022/09/04 00:30:00;;;;;;;6.47;4.97;;;21.70;1.00;;;;;;6105974;23;20607;-91
2022/09/04 00:32:33;;;;;;;7.73;4.73;;;21.60;1.00;;;;;;6105120;23;20458;-91
2022/09/04 00:35:19;;;;;;;6.23;4.47;;;21.50;1.00;;;;;;6104569;23;20169;-92
2022/09/04 00:38:07;;;;;;;5.97;4.83;;;21.40;4.20;;;;;;6104620;23;20241;-93
2022/09/04 00:40:38;;;;;;;5.20;4.57;;;21.40;7.80;;;;;;6114956;23;20614;-91
2022/09/04 00:43:43;;;;;;;6.80;4.73;;;21.30;10.80;;;;;;6134129;23;20285;-92
2022/09/04 00:46:36;;;;;;;5.93;4.53;;;21.30;12.60;;;;;;6107081;23;20156;-92
2022/09/04 00:49:20;;;;;;;7.13;4.50;;;21.10;15.30;;;;;;6105259;23;20166;-92
2022/09/04 00:52:08;;;;;;;6.67;5.07;;;21.10;16.30;;;;;;6134105;23;20146;-89
2022/09/04 00:54:33;;;;;;;5.90;4.87;;;21.10;18.90;;;;;;6146018;23;20165;-92
2022/09/04 00:57:20;;;;;;;5.80;4.63;;;21.10;17.50;;;;;;6109653;23;20177;-90
2022/09/04 01:00:08;;;;;;;6.90;4.60;;;21.00;18.50;;;;;;6106504;23;20205;-91
2022/09/04 01:02:49;;;;;;;6.37;4.60;;;21.00;21.10;;;;;;6107280;23;20178;-90
2022/09/04 01:05:44;;;;;;;5.50;4.80;;;20.90;22.10;;;;;;6104357;23;20232;-91
2022/09/04 01:08:26;;;;;;;5.53;4.40;;;21.00;22.40;;;;;;6095578;23;20159;-92
2022/09/04 01:11:37;;;;;;;6.30;4.73;;;21.00;22.00;;;;;;6103771;23;20154;-91
2022/09/04 01:14:45;;;;;;;6.67;4.70;;;21.00;20.80;;;;;;6080771;23;20188;-91
2022/09/04 01:17:36;;;;;;;8.23;4.30;;;21.00;18.90;;;;;;6112014;23;20153;-90
2022/09/04 01:20:51;;;;;;;4.77;4.03;;;21.10;16.40;;;;;;6116896;23;20170;-90
2022/09/04 01:23:48;;;;;;;8.40;4.50;;;21.10;17.00;;;;;;6063444;23;20157;-93
2022/09/04 01:26:41;;;;;;;4.77;3.77;;;21.10;13.80;;;;;;6104869;23;20587;-92
2022/09/04 01:29:15;;;;;;;5.57;4.07;;;21.10;15.10;;;;;;6127155;23;20161;-92
2022/09/04 01:31:47;;;;;;;5.40;3.70;;;21.10;15.10;;;;;;6128759;23;20143;-91
2022/09/04 01:34:33;;;;;;;5.00;3.73;;;21.10;12.70;;;;;;6126814;23;20666;-91
2022/09/04 01:37:19;;;;;;;5.40;3.67;;;21.10;9.90;;;;;;6127275;23;20154;-90
2022/09/04 01:39:55;;;;;;;5.53;3.70;;;21.10;9.40;;;;;;6107967;23;20144;-91
2022/09/04 01:42:39;;;;;;;4.77;3.40;;;21.20;7.30;;;;;;6125919;23;20624;-91
2022/09/04 01:45:32;;;;;;;4.50;3.60;;;21.10;7.10;;;;;;6127258;23;20188;-90
2022/09/04 01:48:03;;;;;;;6.40;3.90;;;21.10;7.60;;;;;;6112616;23;20583;-92
2022/09/04 01:50:32;;;;;;;7.13;3.23;;;21.10;9.70;;;;;;6102928;23;20176;-90
2022/09/04 01:53:27;;;;;;;5.30;3.13;;;21.10;8.90;;;;;;6129294;23;20192;-91
2022/09/04 01:56:19;;;;;;;5.03;3.77;;;21.10;8.90;;;;;;6103304;23;20151;-89
2022/09/04 01:58:48;;;;;;;5.77;3.90;;;21.10;7.70;;;;;;6104118;23;20573;-89
2022/09/04 02:01:17;;;;;;;5.90;3.70;;;21.10;7.60;;;;;;6111854;23;20146;-90
2022/09/04 02:04:11;;;;;;;5.37;3.27;;;21.10;7.80;;;;;;6122030;23;20169;-91
2022/09/04 02:06:53;;;;;;;7.20;3.43;;;21.10;6.90;;;;;;6129032;23;20199;-90
2022/09/04 02:09:54;;;;;;;4.30;2.93;;;21.10;6.30;;;;;;6127610;23;20197;-90
2022/09/04 02:12:36;;;;;;;4.17;3.10;;;21.10;7.30;;;;;;6105552;23;20150;-92
2022/09/04 02:15:11;;;;;;;5.97;3.50;;;21.10;7.00;;;;;;6104507;23;20173;-91
2022/09/04 02:18:01;;;;;;;6.37;4.07;;;21.10;6.10;;;;;;6111470;23;20152;-91
2022/09/04 02:20:31;;;;;;;5.43;3.90;;;21.00;8.30;;;;;;6136219;23;20169;-91
2022/09/04 02:23:14;;;;;;;4.77;3.77;;;21.00;9.50;;;;;;6128843;23;20142;-89
2022/09/04 02:25:55;;;;;;;6.83;4.03;;;21.10;9.60;;;;;;6128653;23;20149;-93
2022/09/04 02:34:29;;;;;;;6.20;4.00;;;21.10;4.80;;;;;;6121687;23;20231;-92
2022/09/04 02:37:26;;;;;;;6.37;4.50;;;21.00;7.20;;;;;;6085033;23;20161;-90
2022/09/04 02:40:30;;;;;;;5.13;3.93;;;21.00;10.40;;;;;;6086606;23;20162;-90
2022/09/04 02:42:59;;;;;;;6.70;3.80;;;20.90;9.60;;;;;;6060709;23;20160;-91
2022/09/04 02:45:38;;;;;;;4.60;4.00;;;20.80;10.40;;;;;;6061776;23;20162;-92
2022/09/04 02:48:21;;;;;;;5.07;4.57;;;20.80;15.10;;;;;;6061089;23;20181;-90
2022/09/04 02:51:12;;;;;;;5.30;4.13;;;20.70;16.10;;;;;;6052310;23;20155;-89
2022/09/04 02:53:50;;;;;;;6.77;4.20;;;20.50;23.10;;;;;;6069657;23;20245;-90
2022/09/04 02:56:30;;;;;;;6.20;4.10;;;20.50;25.10;;;;;;6070714;23;20163;-91
2022/09/04 02:59:26;;;;;;;5.70;4.30;;;20.40;29.20;;;;;;6064597;23;20168;-91
2022/09/04 03:02:12;;;;;;;5.87;4.70;;;20.30;31.10;;;;;;6058677;23;20152;-92
2022/09/04 03:05:03;;;;;;;6.67;4.43;;;20.30;33.50;;;;;;6046162;23;20184;-91
2022/09/04 03:08:01;;;;;;;5.33;4.77;;;20.20;35.90;;;;;;6048360;23;20575;-91
2022/09/04 03:10:39;;;;;;;7.10;5.00;;;20.00;42.40;;;;;;6067370;23;20195;-91
2022/09/04 03:13:17;;;;;;;8.43;4.80;;;20.00;44.00;;;;;;6047550;23;20187;-91
2022/09/04 03:15:54;;;;;;;6.37;4.67;;;20.00;44.60;;;;;;6046116;23;20155;-90
2022/09/04 03:18:55;;;;;;;6.67;3.93;;;20.00;47.10;;;;;;6046728;23;20155;-90
2022/09/04 03:22:00;;;;;;;5.57;4.40;;;19.90;48.50;;;;;;6062157;23;20151;-92
2022/09/04 03:24:41;;;;;;;6.23;4.70;;;19.90;48.20;;;;;;6071029;23;20136;-91
2022/09/04 03:27:11;;;;;;;7.27;4.90;;;20.00;48.30;;;;;;6071290;23;20152;-92
2022/09/04 03:29:43;;;;;;;6.27;4.90;;;20.10;44.50;;;;;;6070930;23;20161;-91
2022/09/04 03:32:27;;;;;;;6.83;5.20;;;20.10;43.10;;;;;;6070184;23;20170;-91
2022/09/04 03:35:00;;;;;;;6.40;5.43;;;20.10;43.00;;;;;;6070863;23;20191;-90
2022/09/04 03:37:47;;;;;;;6.47;5.30;;;20.30;36.10;;;;;;6058423;23;20164;-91
2022/09/04 03:40:34;;;;;;;8.30;5.77;;;20.30;33.30;;;;;;6052510;23;20202;-90
2022/09/04 03:43:17;;;;;;;8.73;5.83;;;20.40;29.80;;;;;;6052942;23;20152;-91
2022/09/04 03:45:52;;;;;;;8.07;6.43;;;20.30;30.00;;;;;;6051907;23;20151;-90
2022/09/04 03:48:47;;;;;;;6.40;5.80;;;20.30;32.50;;;;;;6052463;23;20231;-90
2022/09/04 03:51:48;;;;;;;7.67;5.10;;;20.30;33.60;;;;;;6050960;23;20187;-89
2022/09/04 03:54:32;;;;;;;8.97;5.70;;;20.30;31.30;;;;;;6017407;23;20644;-91
2022/09/04 03:57:11;;;;;;;9.37;5.70;;;20.30;35.60;;;;;;6048650;23;20203;-91
2022/09/04 03:59:48;;;;;;;7.90;5.80;;;20.20;37.20;;;;;;6047988;23;20160;-91
2022/09/04 04:02:52;;;;;;;7.50;6.10;;;20.10;40.70;;;;;;6047808;23;20168;-90
2022/09/04 04:05:55;;;;;;;8.43;6.23;;;20.20;40.90;;;;;;6063759;23;20159;-90
2022/09/04 04:08:34;;;;;;;6.77;6.07;;;20.10;41.50;;;;;;6046571;23;20155;-91
2022/09/04 04:11:11;;;;;;;7.97;6.17;;;20.10;39.40;;;;;;6046616;23;20238;-91
2022/09/04 04:14:16;;;;;;;8.53;6.00;;;20.10;41.80;;;;;;6046065;23;20262;-91
2022/09/04 04:16:50;;;;;;;8.30;6.33;;;20.10;41.70;;;;;;6071484;23;20638;-92
2022/09/04 04:19:25;;;;;;;10.30;6.60;;;20.00;42.10;;;;;;6045954;23;20156;-91
2022/09/04 04:22:14;;;;;;;7.70;6.33;;;20.00;45.10;;;;;;6046674;23;20153;-91
2022/09/04 04:25:14;;;;;;;8.23;6.70;;;20.10;42.30;;;;;;6046647;23;20161;-91
2022/09/04 04:27:43;;;;;;;6.93;6.20;;;20.10;37.60;;;;;;6072023;23;20136;-91
2022/09/04 04:30:12;;;;;;;8.70;6.43;;;20.10;39.60;;;;;;6047183;23;20186;-92
2022/09/04 04:33:07;;;;;;;7.97;6.60;;;20.00;44.30;;;;;;6049354;23;20163;-92
2022/09/04 04:35:55;;;;;;;10.30;6.50;;;19.90;43.20;;;;;;6049450;23;20174;-91
2022/09/04 04:38:46;;;;;;;10.43;6.23;;;19.80;49.10;;;;;;6053468;23;20589;-91
2022/09/04 04:47:34;;;;;;;8.00;6.83;;;19.50;57.40;;;;;;6071916;23;20151;-90
2022/09/04 04:50:26;;;;;;;6.83;6.13;;;19.50;59.00;;;;;;6047355;23;20144;-90
2022/09/04 04:53:31;;;;;;;8.23;5.97;;;19.50;58.60;;;;;;6062911;23;20152;-91
2022/09/04 04:56:12;;;;;;;7.60;6.53;;;19.60;58.20;;;;;;6018322;23;20165;-90
2022/09/04 04:59:12;;;;;;;9.83;6.40;;;19.60;56.60;;;;;;6052714;23;20498;-91
2022/09/04 05:05:06;;;;;;;7.00;6.17;;;19.50;58.90;;;;;;6076649;23;20148;-92
2022/09/04 05:07:54;;;;;;;7.13;6.00;;;19.50;59.10;;;;;;6071422;23;20154;-91
2022/09/04 05:10:20;;;;;;;7.33;5.60;;;19.40;59.20;;;;;;6046701;23;20154;-92
2022/09/04 05:13:27;;;;;;;7.33;5.50;;;19.40;59.50;;;;;;6060593;23;20188;-92
2022/09/04 05:16:04;;;;;;;6.27;5.40;;;19.40;60.00;;;;;;6068466;23;20165;-92
2022/09/04 05:18:56;;;;;;;6.70;5.50;;;19.50;61.20;;;;;;6052421;23;20160;-92
2022/09/04 05:21:34;;;;;;;6.33;5.47;;;19.50;57.60;;;;;;6047186;23;20175;-90
2022/09/04 05:24:52;;;;;;;10.17;5.83;;;19.50;57.70;;;;;;6047083;23;20161;-90
2022/09/04 05:27:48;;;;;;;7.27;4.93;;;19.70;48.90;;;;;;6007921;23;20238;-91
2022/09/04 05:30:20;;;;;;;6.60;5.40;;;19.80;44.90;;;;;;6046044;23;20598;-91
2022/09/04 05:33:04;;;;;;;5.13;4.63;;;19.80;45.10;;;;;;6046076;23;20231;-91
2022/09/04 05:36:08;;;;;;;6.00;5.03;;;19.80;45.10;;;;;;6046275;23;20539;-91
2022/09/04 05:38:49;;;;;;;5.93;5.07;;;19.70;46.00;;;;;;5992133;23;20161;-90
2022/09/04 05:41:37;;;;;;;7.37;5.30;;;19.60;47.30;;;;;;6045796;23;20268;-93
2022/09/04 05:44:33;;;;;;;6.23;5.23;;;19.60;50.50;;;;;;6046807;23;20501;-91
2022/09/04 05:47:17;;;;;;;6.00;4.57;;;19.60;48.50;;;;;;6046801;23;20156;-91
2022/09/04 05:50:27;;;;;;;6.67;5.47;;;19.60;46.90;;;;;;6045798;23;20586;-92
2022/09/04 05:53:44;;;;;;;6.13;5.40;;;19.70;47.40;;;;;;6003564;23;20184;-92
2022/09/04 05:56:53;;;;;;;6.83;5.37;;;19.90;41.40;;;;;;6048014;23;20167;-93
2022/09/04 05:59:32;;;;;;;6.83;5.03;;;19.90;37.90;;;;;;6044746;23;20231;-93
2022/09/04 06:02:00;;;;;;;6.40;5.70;;;20.00;37.90;;;;;;6067477;23;20170;-94
2022/09/04 06:04:32;;;;;;;9.50;6.17;;;20.00;37.40;;;;;;6069706;23;20174;-91
2022/09/04 06:07:12;;;;;;;7.60;6.10;;;19.90;35.60;;;;;;6069376;23;20603;-92
2022/09/04 06:10:09;;;;;;;7.53;6.27;;;20.00;36.60;;;;;;6068342;23;20176;-93
2022/09/04 06:12:47;;;;;;;7.93;6.20;;;20.10;35.20;;;;;;6111783;23;20206;-91
2022/09/04 06:15:34;;;;;;;8.53;6.63;;;20.00;36.90;;;;;;6127603;23;20182;-93
2022/09/04 06:18:19;;;;;;;7.30;6.60;;;20.10;34.60;;;;;;6127180;23;20155;-90
2022/09/04 06:21:35;;;;;;;8.03;6.83;;;20.20;33.40;;;;;;6141326;23;20139;-91
2022/09/04 06:24:10;;;;;;;8.23;6.40;;;20.30;30.00;;;;;;6078348;23;20183;-91
2022/09/04 06:27:16;;;;;;;9.53;6.87;;;20.30;26.50;;;;;;6111395;23;20175;-91
2022/09/04 06:30:03;;;;;;;8.77;6.53;;;20.30;29.00;;;;;;6106471;23;20151;-91
2022/09/04 06:33:15;;;;;;;8.73;6.97;;;20.40;25.50;;;;;;6105988;23;20143;-92
2022/09/04 06:35:51;;;;;;;8.87;6.67;;;20.30;26.90;;;;;;6072397;23;20169;-92
2022/09/04 06:38:35;;;;;;;8.83;7.43;;;20.30;29.80;;;;;;6107144;23;20160;-92
2022/09/04 06:41:42;;;;;;;9.87;6.50;;;20.30;30.40;;;;;;6118184;23;20180;-92
2022/09/04 06:44:49;;;;;;;8.27;6.20;;;20.40;27.90;;;;;;6153013;23;20147;-92
2022/09/04 06:47:46;;;;;;;7.93;6.50;;;20.40;28.60;;;;;;6127516;23;20150;-91
2022/09/04 06:50:36;;;;;;;7.73;5.93;;;20.50;25.10;;;;;;6152668;23;20171;-91
2022/09/04 06:53:25;;;;;;;7.17;5.93;;;20.60;22.70;;;;;;6151822;23;20170;-90
2022/09/04 06:56:28;;;;;;;6.83;5.57;;;20.80;18.10;;;;;;6113853;23;20162;-91
2022/09/04 06:59:13;;;;;;;7.20;6.13;;;21.00;14.70;;;;;;6133277;23;20159;-93
2022/09/04 07:02:01;;;;;;;6.53;5.80;;;21.30;5.00;;;;;;6107321;23;20203;-91
2022/09/04 07:05:02;;;;;;;6.80;5.67;;;21.60;1.00;;;;;;6103713;23;20168;-92
2022/09/04 07:08:10;;;;;;;7.03;5.67;;;21.70;1.00;;;;;;6106461;23;20175;-92
2022/09/04 07:10:44;;;;;;;7.43;5.97;;;21.80;1.00;;;;;;6128654;23;20652;-92
2022/09/04 07:13:28;;;;;;;6.73;5.50;;;22.00;1.00;;;;;;6105202;23;20284;-92
2022/09/04 07:16:06;;;;;;;7.73;6.40;;;22.10;1.00;;;;;;6130538;23;20191;-92
2022/09/04 07:19:29;;;;;;;7.20;5.87;;;22.10;1.00;;;;;;6105208;23;20157;-91
2022/09/04 07:22:09;;;;;;;6.40;5.00;;;22.20;1.00;;;;;;6013611;23;20159;-91
2022/09/04 07:25:11;;;;;;;9.03;5.53;;;22.20;1.00;;;;;;5991418;23;20566;-92
2022/09/04 07:28:17;;;;;;;6.17;4.63;;;22.40;1.00;;;;;;6085807;23;20192;-92
2022/09/04 07:31:00;;;;;;;6.90;4.43;;;22.60;1.00;;;;;;6130021;23;20154;-93
2022/09/04 07:34:00;;;;;;;5.80;5.00;;;22.60;1.00;;;;;;6106026;23;20182;-90
2022/09/04 07:36:42;;;;;;;5.97;4.50;;;22.60;1.00;;;;;;6105147;23;20155;-91
2022/09/04 07:39:37;;;;;;;5.67;4.97;;;22.70;1.00;;;;;;6105267;23;20158;-90
2022/09/04 07:42:39;;;;;;;6.20;5.07;;;23.00;1.00;;;;;;6068343;23;20225;-92
2022/09/04 07:45:21;;;;;;;8.40;4.53;;;23.10;1.00;;;;;;6148546;23;20212;-91
2022/09/04 07:47:54;;;;;;;5.13;4.10;;;23.10;1.00;;;;;;6110070;23;20179;-92
2022/09/04 07:50:34;;;;;;;5.03;4.03;;;23.20;1.00;;;;;;6108505;23;20475;-91
2022/09/04 07:53:13;;;;;;;5.00;3.77;;;23.20;1.00;;;;;;6106069;23;20177;-91
2022/09/04 07:55:41;;;;;;;6.60;3.73;;;23.30;1.00;;;;;;6105720;23;20159;-92
2022/09/04 07:58:21;;;;;;;6.00;4.07;;;23.20;1.00;;;;;;6106399;23;20155;-91
2022/09/04 08:01:02;;;;;;;4.10;3.70;;;23.40;1.00;;;;;;6108612;23;20158;-91
2022/09/04 08:03:53;;;;;;;4.43;3.63;;;23.50;1.00;;;;;;6129528;23;20198;-89
2022/09/04 08:06:37;;;;;;;4.57;3.33;;;23.60;1.00;;;;;;6115144;23;20155;-91
2022/09/04 08:09:03;;;;;;;4.03;3.20;;;23.60;1.00;;;;;;6107658;23;20182;-91
2022/09/04 08:11:53;;;;;;;4.67;3.53;;;23.60;1.00;;;;;;6134977;23;20162;-90
2022/09/04 08:14:26;;;;;;;5.83;3.63;;;23.70;1.00;;;;;;6137593;23;20186;-90
2022/09/04 08:17:26;;;;;;;4.73;3.33;;;23.90;1.00;;;;;;6110985;23;20175;-91
2022/09/04 08:20:31;;;;;;;5.00;3.60;;;24.00;1.00;;;;;;6109291;23;20222;-92
2022/09/04 08:23:24;;;;;;;4.93;3.20;;;24.40;1.00;;;;;;6108093;23;20594;-93
2022/09/04 08:26:13;;;;;;;3.40;2.87;;;24.20;1.00;;;;;;6138281;23;20151;-92
2022/09/04 08:29:18;;;;;;;5.63;3.07;;;24.20;1.00;;;;;;6115847;23;20159;-91
2022/09/04 08:32:21;;;;;;;6.30;2.77;;;24.30;1.00;;;;;;6103389;23;20162;-91
2022/09/04 08:34:59;;;;;;;4.33;3.17;;;24.30;1.00;;;;;;6130594;23;20221;-92
2022/09/04 08:37:29;;;;;;;4.90;2.90;;;24.40;1.00;;;;;;6108277;23;20472;-92
2022/09/04 08:40:25;;;;;;;3.80;2.67;;;24.60;1.00;;;;;;6111637;23;20182;-92
2022/09/04 08:43:23;;;;;;;4.43;2.83;;;24.70;99.90;;;;;;6132211;23;20159;-92
2022/09/04 08:46:28;;;;;;;4.77;2.73;;;24.90;99.90;;;;;;6106482;23;20433;-93
2022/09/04 08:49:37;;;;;;;3.40;2.53;;;24.90;99.90;;;;;;6105464;23;20155;-92
2022/09/04 08:52:54;;;;;;;4.47;2.33;;;25.00;99.90;;;;;;6133858;23;20160;-92
2022/09/04 08:55:48;;;;;;;4.03;2.60;;;24.80;99.90;;;;;;6060059;23;20171;-93
2022/09/04 08:58:43;;;;;;;3.47;1.80;;;24.80;99.90;;;;;;6105075;23;20155;-93
2022/09/04 09:01:30;;;;;;;5.57;2.00;;;24.80;99.90;;;;;;6105525;23;20180;-92
2022/09/04 09:04:14;;;;;;;4.93;2.20;;;25.00;99.90;;;;;;6129100;23;20162;-91
2022/09/04 09:06:43;;;;;;;4.37;2.10;;;25.00;99.90;;;;;;6104381;23;20211;-93
2022/09/04 09:09:33;;;;;;;5.80;2.17;;;24.80;99.90;;;;;;6104469;23;20155;-93
2022/09/04 09:12:18;;;;;;;3.13;1.73;;;24.80;99.90;;;;;;6104792;23;20229;-92
2022/09/04 09:14:53;;;;;;;2.70;2.00;;;24.80;99.90;;;;;;6110327;23;20186;-92
2022/09/04 09:17:59;;;;;;;3.80;2.37;;;24.80;27.40;;;;;;6104231;23;20151;-92
2022/09/04 09:20:45;;;;;;;5.77;2.07;;;24.90;2.20;;;;;;6063303;23;20151;-93
2022/09/04 09:23:27;;;;;;;4.73;1.90;;;25.10;1.00;;;;;;6107418;23;20179;-92
2022/09/04 09:26:17;;;;;;;2.97;1.80;;;25.20;1.00;;;;;;6108486;23;20151;-93
2022/09/04 09:29:13;;;;;;;3.67;1.87;;;25.20;1.00;;;;;;6110501;23;20154;-91
2022/09/04 09:32:02;;;;;;;4.03;2.10;;;25.20;1.00;;;;;;6132800;23;20179;-91
2022/09/04 09:34:46;;;;;;;3.83;1.93;;;25.40;99.90;;;;;;6108118;23;20635;-93
2022/09/04 09:37:37;;;;;;;5.13;2.27;;;25.50;99.90;;;;;;6106975;23;20215;-93
2022/09/04 09:40:38;;;;;;;3.53;1.87;;;25.50;99.90;;;;;;6106340;23;20242;-93
2022/09/04 09:43:16;;;;;;;5.00;2.07;;;25.50;99.90;;;;;;6087197;23;20154;-90
2022/09/04 09:46:20;;;;;;;4.63;1.80;;;25.50;1.00;;;;;;6106498;23;20160;-93
2022/09/04 09:49:04;;;;;;;5.90;1.80;;;25.60;99.90;;;;;;5989498;23;20158;-93
2022/09/04 09:52:14;;;;;;;5.43;2.00;;;25.50;99.90;;;;;;5988935;23;20230;-93
2022/09/04 09:54:49;;;;;;;5.60;2.37;;;25.60;1.00;;;;;;6092712;23;20182;-92
2022/09/04 09:57:51;;;;;;;4.53;1.93;;;25.60;64.90;;;;;;6104348;23;20154;-92
2022/09/04 10:00:20;;;;;;;2.73;1.60;;;25.60;1.00;;;;;;6043899;23;20159;-91
2022/09/04 10:03:23;;;;;;;3.30;1.80;;;25.70;99.90;;;;;;6102752;23;20155;-92
2022/09/04 10:06:08;;;;;;;8.80;1.93;;;25.80;24.40;;;;;;6129369;23;20628;-92
2022/09/04 10:09:15;;;;;;;5.10;1.73;;;26.00;1.00;;;;;;6105175;23;20178;-93
2022/09/04 10:11:58;;;;;;;3.77;1.60;;;26.00;99.90;;;;;;6104049;23;20170;-91
2022/09/04 10:14:42;;;;;;;4.10;1.80;;;25.90;1.00;;;;;;6104766;23;20632;-92
2022/09/04 10:17:35;;;;;;;5.70;1.90;;;25.70;1.00;;;;;;6103762;23;20147;-91
2022/09/04 10:20:28;;;;;;;5.43;1.67;;;25.70;1.00;;;;;;6103959;23;20154;-92
2022/09/04 10:23:26;;;;;;;3.90;1.77;;;25.80;1.00;;;;;;6130183;23;20155;-92
2022/09/04 10:26:16;;;;;;;3.97;1.90;;;25.90;1.00;;;;;;6105061;23;20169;-92
2022/09/04 10:29:04;;;;;;;4.43;1.67;;;26.00;1.00;;;;;;6112726;23;20139;-91
2022/09/04 10:32:18;;;;;;;4.97;1.40;;;25.90;16.20;;;;;;6127229;23;20158;-91
2022/09/04 10:35:31;;;;;;;4.07;1.90;;;26.00;99.90;;;;;;6148600;23;20179;-93
2022/09/04 10:38:16;;;;;;;4.40;1.70;;;26.20;99.90;;;;;;6114032;23;20147;-92
2022/09/04 10:41:13;;;;;;;4.93;1.57;;;26.00;99.90;;;;;;6108174;23;20191;-94
2022/09/04 10:44:00;;;;;;;3.63;1.80;;;26.20;99.90;;;;;;6133893;23;20146;-93
2022/09/04 10:47:03;;;;;;;3.67;1.70;;;26.30;99.90;;;;;;6107761;23;20174;-93
2022/09/04 10:50:00;;;;;;;6.97;1.90;;;26.30;99.90;;;;;;6123068;23;20139;-91
2022/09/04 10:52:42;;;;;;;6.80;2.10;;;26.30;99.90;;;;;;6113529;23;20236;-92
2022/09/04 10:55:35;;;;;;;4.70;1.63;;;26.40;99.90;;;;;;6122921;23;20171;-92
2022/09/04 10:58:09;;;;;;;4.67;1.73;;;26.70;99.90;;;;;;6105059;23;20158;-94
2022/09/04 11:00:39;;;;;;;6.57;1.90;;;26.50;1.00;;;;;;6104536;23;20181;-93
2022/09/04 11:03:27;;;;;;;6.23;1.87;;;26.60;1.00;;;;;;6104666;23;20170;-91
2022/09/04 11:06:09;;;;;;;3.50;1.63;;;26.50;1.00;;;;;;6130713;23;20149;-93
2022/09/04 11:08:49;;;;;;;4.00;1.30;;;26.60;1.00;;;;;;6110342;23;20150;-92
2022/09/04 11:11:42;;;;;;;3.70;1.30;;;26.60;1.00;;;;;;6107874;23;20167;-93
2022/09/04 11:14:37;;;;;;;3.87;1.40;;;26.70;99.90;;;;;;6130367;23;20627;-91
2022/09/04 11:17:42;;;;;;;5.13;1.60;;;26.80;99.90;;;;;;6104037;23;20151;-91
2022/09/04 11:20:19;;;;;;;2.92;1.40;;;26.70;1.00;;;;;;6130182;23;20230;-94
2022/09/04 11:23:04;;;;;;;3.53;1.42;;;26.80;1.00;;;;;;6113898;23;20146;-92
2022/09/04 11:26:04;;;;;;;3.00;1.52;;;27.00;99.90;;;;;;6106458;23;20154;-92
2022/09/04 11:28:45;;;;;;;2.70;1.43;;;27.20;99.90;;;;;;6132833;23;20151;-94
2022/09/04 11:31:27;;;;;;;3.35;1.50;;;27.30;99.90;;;;;;6109470;23;20213;-92
2022/09/04 11:34:14;;;;;;;4.00;1.42;;;27.30;99.90;;;;;;6107119;23;20186;-91
2022/09/04 11:37:07;;;;;;;2.72;1.30;;;27.30;99.90;;;;;;6136211;23;20158;-92
2022/09/04 11:40:02;;;;;;;4.13;1.58;;;27.20;99.90;;;;;;6109154;23;20160;-91
2022/09/04 11:42:49;;;;;;;3.38;1.70;;;27.20;99.90;;;;;;6095109;23;20165;-92
2022/09/04 11:45:42;;;;;;;4.33;1.53;;;27.10;99.90;;;;;;6118743;23;20161;-93
2022/09/04 11:48:36;;;;;;;3.30;1.40;;;27.00;99.90;;;;;;6141955;23;20145;-93
2022/09/04 11:51:23;;;;;;;2.60;1.27;;;27.20;99.90;;;;;;6105790;23;20249;-93
2022/09/04 11:54:26;;;;;;;3.03;1.30;;;27.20;99.90;;;;;;6116490;23;20194;-92
2022/09/04 11:57:12;;;;;;;5.43;1.70;;;27.10;99.90;;;;;;6022536;23;20391;-90
2022/09/04 12:00:08;;;;;;;2.50;1.25;;;27.00;99.90;;;;;;6125368;23;20230;-93
2022/09/04 12:02:55;;;;;;;1.73;1.02;;;27.00;99.90;;;;;;6126152;23;20219;-92
2022/09/04 12:06:13;;;;;;;3.43;1.33;;;27.10;99.90;;;;;;6126373;23;20154;-92
2022/09/04 12:08:51;;;;;;;4.28;1.48;;;27.20;99.90;;;;;;6006286;23;20146;-92
2022/09/04 12:11:35;;;;;;;4.80;1.87;;;27.30;99.90;;;;;;6005659;23;20172;-94
2022/09/04 12:14:34;;;;;;;6.30;1.60;;;27.20;99.90;;;;;;6012640;23;20193;-93
2022/09/04 12:17:20;;;;;;;3.25;1.50;;;27.20;1.00;;;;;;6010958;23;20177;-93
2022/09/04 12:20:24;;;;;;;3.22;1.40;;;27.20;99.90;;;;;;6068310;23;20153;-91
2022/09/04 12:23:29;;;;;;;4.95;1.90;;;27.30;1.00;;;;;;6152783;23;20155;-92
2022/09/04 12:26:01;;;;;;;2.53;1.38;;;27.50;1.00;;;;;;6124907;23;20159;-92
2022/09/04 12:29:03;;;;;;;4.70;1.70;;;27.50;1.00;;;;;;6123455;23;20217;-92
2022/09/04 12:31:55;;;;;;;4.65;1.60;;;27.50;1.00;;;;;;6122969;23;20166;-92
2022/09/04 12:34:27;;;;;;;4.95;1.33;;;27.70;1.00;;;;;;6110227;23;20242;-93
2022/09/04 12:37:20;;;;;;;2.55;1.55;;;27.80;1.00;;;;;;6117062;23;20159;-93
2022/09/04 12:40:07;;;;;;;2.58;1.58;;;27.80;1.00;;;;;;6074884;23;20563;-93
2022/09/04 12:42:56;;;;;;;2.88;1.50;;;27.70;1.00;;;;;;6110892;23;20177;-93
2022/09/04 12:45:49;;;;;;;3.00;1.73;;;27.70;99.90;;;;;;6107550;23;20158;-93
2022/09/04 12:48:48;;;;;;;2.80;1.33;;;27.70;99.90;;;;;;6066792;23;20154;-91
2022/09/04 12:51:22;;;;;;;3.63;1.40;;;27.50;99.90;;;;;;6125952;23;20162;-90
2022/09/04 12:54:04;;;;;;;5.97;1.75;;;27.40;99.90;;;;;;6127966;23;20181;-92
2022/09/04 12:56:44;;;;;;;5.37;1.43;;;27.40;99.90;;;;;;6126998;23;20210;-92
2022/09/04 12:59:29;;;;;;;5.57;1.60;;;27.20;99.90;;;;;;6127544;23;20200;-91
2022/09/04 13:02:22;;;;;;;4.67;1.40;;;27.00;1.00;;;;;;6124336;23;20162;-93
2022/09/04 13:04:54;;;;;;;4.33;1.50;;;26.80;1.00;;;;;;6115410;23;20155;-92
2022/09/04 13:07:40;;;;;;;3.63;1.67;;;26.70;1.00;;;;;;6108566;23;20153;-91
2022/09/04 13:10:33;;;;;;;3.53;1.63;;;26.90;1.00;;;;;;6105990;23;20151;-94
2022/09/04 13:13:47;;;;;;;5.30;1.60;;;26.90;1.00;;;;;;6108988;23;20166;-92
2022/09/04 13:16:37;;;;;;;2.40;1.50;;;27.00;1.00;;;;;;6026160;23;20169;-91
2022/09/04 13:19:19;;;;;;;2.63;1.50;;;27.20;1.00;;;;;;6009494;23;20165;-93
2022/09/04 13:22:03;;;;;;;3.63;1.70;;;27.40;1.00;;;;;;6122449;23;20182;-93
2022/09/04 13:25:08;;;;;;;3.90;1.55;;;27.60;1.00;;;;;;6111854;23;20163;-92
2022/09/04 13:28:12;;;;;;;4.88;1.60;;;27.60;1.00;;;;;;6129115;23;20143;-93
2022/09/04 13:30:58;;;;;;;3.35;1.45;;;27.70;1.00;;;;;;6128529;23;20484;-92
2022/09/04 13:33:54;;;;;;;3.33;1.50;;;27.70;1.00;;;;;;6104463;23;20224;-92
2022/09/04 13:36:37;;;;;;;3.75;1.63;;;27.80;1.00;;;;;;6120455;23;20166;-93
2022/09/04 13:39:31;;;;;;;3.33;1.42;;;28.00;1.00;;;;;;6152947;23;20146;-92
2022/09/04 13:42:16;;;;;;;5.28;1.65;;;27.90;1.00;;;;;;6123662;23;20179;-92
2022/09/04 13:45:06;;;;;;;2.97;1.45;;;27.90;1.00;;;;;;6109825;23;20572;-92
2022/09/04 13:47:52;;;;;;;3.08;1.60;;;28.10;1.00;;;;;;6108912;23;20155;-93
2022/09/04 13:50:46;;;;;;;4.57;1.60;;;28.00;1.00;;;;;;6112988;23;20155;-92
2022/09/04 13:53:32;;;;;;;2.00;1.45;;;28.10;1.00;;;;;;6108689;23;20147;-93
2022/09/04 13:56:06;;;;;;;4.03;1.80;;;28.20;1.00;;;;;;6108365;23;20155;-93
2022/09/04 13:58:45;;;;;;;3.13;1.52;;;28.30;1.00;;;;;;6110467;23;20242;-93
2022/09/04 14:01:15;;;;;;;2.65;1.33;;;28.50;1.00;;;;;;6107907;23;20159;-93
2022/09/04 14:03:52;;;;;;;4.35;1.77;;;28.40;1.00;;;;;;6082513;23;20170;-93
2022/09/04 14:06:20;;;;;;;2.90;1.45;;;28.40;1.00;;;;;;6107538;23;20209;-93
2022/09/04 14:08:48;;;;;;;5.03;1.55;;;28.40;1.00;;;;;;6134251;23;20143;-93
2022/09/04 14:11:39;;;;;;;3.70;1.40;;;28.50;1.00;;;;;;6106062;23;20667;-91
2022/09/04 14:14:23;;;;;;;2.35;1.40;;;28.60;1.00;;;;;;6109650;23;20187;-93
2022/09/04 14:16:51;;;;;;;4.25;1.60;;;28.50;99.90;;;;;;6105804;23;20155;-92
2022/09/04 14:19:19;;;;;;;4.70;1.50;;;28.50;99.90;;;;;;6103968;23;20209;-93
2022/09/04 14:22:04;;;;;;;3.50;1.30;;;28.60;99.90;;;;;;6131069;23;20195;-93
2022/09/04 14:24:40;;;;;;;3.35;1.33;;;28.70;99.90;;;;;;6108410;23;20265;-93
2022/09/04 14:27:18;;;;;;;2.28;1.30;;;28.40;99.90;;;;;;6111314;23;20143;-93
2022/09/04 14:30:05;;;;;;;4.43;2.15;;;28.30;99.90;;;;;;6137153;23;20188;-92
2022/09/04 14:33:03;;;;;;;3.75;1.45;;;28.50;99.90;;;;;;6109973;23;20155;-93
2022/09/04 14:36:13;;;;;;;2.83;1.50;;;28.90;99.90;;;;;;6136350;23;20151;-92
2022/09/04 14:39:00;;;;;;;3.67;1.40;;;29.00;99.90;;;;;;6094581;23;20147;-94
2022/09/04 14:42:01;;;;;;;2.22;1.38;;;28.90;99.90;;;;;;6112964;23;20174;-92
2022/09/04 14:44:55;;;;;;;4.28;1.48;;;29.10;99.90;;;;;;6090283;23;20169;-94
2022/09/04 14:47:43;;;;;;;6.10;1.80;;;29.10;99.90;;;;;;6110980;23;20157;-93
2022/09/04 14:50:12;;;;;;;2.53;1.40;;;28.90;99.90;;;;;;6108859;23;20162;-92
2022/09/04 14:52:47;;;;;;;4.45;1.83;;;28.80;99.90;;;;;;6090348;23;20242;-92
2022/09/04 14:55:25;;;;;;;3.67;1.42;;;28.60;99.90;;;;;;6110221;23;20634;-92